createdAt,value
2022-08-22T00:02:23.632Z,58.75
2022-08-22T00:02:57.072Z,38.60
2022-08-22T00:04:58.139Z,59.00
2022-08-22T00:07:32.574Z,56.50
2022-08-22T00:10:02.783Z,56.25
2022-08-22T00:12:34.631Z,51.50
2022-08-22T00:15:05.490Z,63.75
2022-08-22T00:17:41.707Z,62.25
2022-08-22T00:20:13.289Z,61.00
2022-08-22T00:22:44.430Z,58.50
2022-08-22T00:25:25.615Z,56.25
2022-08-22T00:27:58.172Z,60.00
2022-08-22T00:30:26.666Z,63.25
2022-08-22T00:33:00.165Z,59.00
2022-08-22T00:35:30.721Z,61.25
2022-08-22T00:38:03.867Z,60.75
2022-08-22T00:40:42.964Z,65.75
2022-08-22T00:43:27.433Z,61.50
2022-08-22T00:46:03.667Z,66.00
2022-08-22T00:48:51.119Z,59.00
2022-08-22T00:51:37.173Z,67.25
2022-08-22T00:54:13.352Z,59.00
2022-08-22T00:57:10.428Z,65.25
2022-08-22T00:59:45.665Z,60.25
2022-08-22T01:02:22.428Z,62.75
2022-08-22T01:05:03.571Z,66.50
2022-08-22T01:07:39.406Z,68.75
2022-08-22T01:10:17.134Z,64.00
2022-08-22T01:12:54.219Z,65.50
2022-08-22T01:15:25.361Z,59.00
2022-08-22T01:18:09.436Z,64.25
2022-08-22T01:21:00.789Z,64.00
2022-08-22T01:23:40.372Z,65.25
2022-08-22T01:26:33.275Z,59.75
2022-08-22T01:29:17.656Z,65.00
2022-08-22T01:31:59.626Z,55.25
2022-08-22T01:34:44.900Z,64.50
2022-08-22T01:37:43.503Z,65.50
2022-08-22T01:40:27.199Z,63.00
2022-08-22T01:43:06.223Z,62.50
2022-08-22T01:45:51.420Z,68.25
2022-08-22T01:48:21.881Z,61.50
2022-08-22T01:50:53.931Z,65.75
2022-08-22T01:53:24.999Z,66.50
2022-08-22T01:55:58.205Z,62.00
2022-08-22T01:58:29.437Z,56.75
2022-08-22T02:01:04.489Z,68.25
2022-08-22T02:03:34.654Z,63.75
2022-08-22T02:06:05.765Z,65.00
2022-08-22T02:08:39.534Z,64.75
2022-08-22T02:11:10.619Z,72.50
2022-08-22T02:13:46.758Z,67.00
2022-08-22T02:16:18.425Z,62.00
2022-08-22T02:18:52.150Z,67.75
2022-08-22T02:21:23.804Z,62.00
2022-08-22T02:23:55.498Z,64.50
2022-08-22T02:26:27.079Z,70.25
2022-08-22T02:28:59.257Z,72.25
2022-08-22T02:31:40.118Z,71.25
2022-08-22T02:34:32.147Z,70.25
2022-08-22T02:37:06.868Z,73.50
2022-08-22T02:39:37.232Z,69.75
2022-08-22T02:42:15.241Z,70.00
2022-08-22T02:44:50.885Z,73.75
2022-08-22T02:47:24.984Z,70.25
2022-08-22T02:49:56.984Z,71.75
2022-08-22T02:52:27.655Z,67.50
2022-08-22T02:54:58.465Z,69.50
2022-08-22T02:57:31.580Z,65.25
2022-08-22T03:00:24.999Z,68.00
2022-08-22T03:03:05.909Z,61.25
2022-08-22T03:05:47.104Z,72.75
2022-08-22T03:08:22.018Z,72.75
2022-08-22T03:10:56.685Z,80.00
2022-08-22T03:13:27.120Z,74.33
2022-08-22T03:15:57.741Z,76.67
2022-08-22T03:18:27.496Z,80.25
2022-08-22T03:20:59.181Z,76.25
2022-08-22T03:23:37.637Z,86.00
2022-08-22T03:26:11.453Z,81.50
2022-08-22T03:28:59.093Z,84.50
2022-08-22T03:31:29.950Z,90.75
2022-08-22T03:34:22.343Z,84.00
2022-08-22T03:36:59.872Z,82.00
2022-08-22T03:39:40.618Z,88.25
2022-08-22T03:42:22.409Z,89.50
2022-08-22T03:45:06.282Z,89.75
2022-08-22T03:47:48.961Z,94.50
2022-08-22T03:50:35.590Z,95.00
2022-08-22T03:53:24.658Z,99.25
2022-08-22T03:56:12.518Z,101.00
2022-08-22T03:58:56.617Z,93.00
2022-08-22T04:01:39.439Z,101.25
2022-08-22T04:04:22.529Z,93.75
2022-08-22T04:07:00.338Z,90.00
2022-08-22T04:09:52.817Z,95.00
2022-08-22T04:12:40.856Z,110.00
2022-08-22T04:15:28.249Z,98.75
2022-08-22T04:18:20.024Z,103.75
2022-08-22T04:21:11.932Z,106.00
2022-08-22T04:23:54.767Z,102.75
2022-08-22T04:26:29.821Z,106.75
2022-08-22T04:29:04.913Z,107.00
2022-08-22T04:31:35.036Z,96.50
2022-08-22T04:34:07.264Z,102.00
2022-08-22T04:36:39.566Z,126.75
2022-08-22T04:39:11.068Z,105.75
2022-08-22T04:41:43.362Z,111.33
2022-08-22T04:44:15.534Z,104.75
2022-08-22T04:46:46.854Z,127.00
2022-08-22T04:49:18.087Z,122.25
2022-08-22T04:51:49.111Z,121.67
2022-08-22T04:54:42.496Z,121.67
2022-08-22T04:57:17.265Z,116.25
2022-08-22T04:59:47.446Z,122.67
2022-08-22T05:02:22.452Z,123.67
2022-08-22T05:04:53.210Z,124.00
2022-08-22T05:07:23.153Z,126.33
2022-08-22T05:09:52.978Z,127.33
2022-08-22T05:12:22.830Z,118.67
2022-08-22T05:14:55.189Z,114.00
2022-08-22T05:17:25.954Z,123.33
2022-08-22T05:19:56.146Z,123.33
2022-08-22T05:22:26.311Z,124.33
2022-08-22T05:24:56.416Z,120.33
2022-08-22T05:27:26.223Z,117.33
2022-08-22T05:29:59.837Z,117.00
2022-08-22T05:32:30.291Z,118.33
2022-08-22T05:35:00.814Z,110.67
2022-08-22T05:37:34.646Z,126.67
2022-08-22T05:40:03.770Z,133.00
2022-08-22T05:42:34.672Z,121.33
2022-08-22T05:45:06.890Z,123.50
2022-08-22T05:47:43.050Z,113.75
2022-08-22T05:50:13.636Z,119.75
2022-08-22T05:52:46.468Z,115.50
2022-08-22T05:55:21.208Z,114.50
2022-08-22T05:57:51.698Z,128.67
2022-08-22T06:00:22.600Z,117.00
2022-08-22T06:02:55.310Z,125.33
2022-08-22T06:05:25.953Z,126.33
2022-08-22T06:07:56.697Z,107.67
2022-08-22T06:10:27.255Z,114.00
2022-08-22T06:12:59.616Z,118.33
2022-08-22T06:15:33.988Z,123.67
2022-08-22T06:18:03.594Z,118.33
2022-08-22T06:20:34.403Z,113.67
2022-08-22T06:23:03.858Z,109.33
2022-08-22T06:25:33.668Z,117.00
2022-08-22T06:28:04.664Z,121.67
2022-08-22T06:30:35.622Z,117.25
2022-08-22T06:33:12.341Z,118.33
2022-08-22T06:36:00.603Z,109.33
2022-08-22T06:38:33.700Z,101.25
2022-08-22T06:41:02.343Z,110.25
2022-08-22T06:43:34.281Z,108.75
2022-08-22T06:46:04.954Z,94.00
2022-08-22T06:48:34.695Z,98.25
2022-08-22T06:51:03.083Z,98.50
2022-08-22T06:53:35.600Z,96.50
2022-08-22T06:56:06.058Z,92.00
2022-08-22T06:58:35.818Z,95.00
2022-08-22T07:01:11.645Z,92.00
2022-08-22T07:03:42.411Z,84.25
2022-08-22T07:06:14.450Z,93.25
2022-08-22T07:08:43.326Z,90.00
2022-08-22T07:11:15.829Z,90.75
2022-08-22T07:13:45.786Z,92.00
2022-08-22T07:16:18.417Z,82.75
2022-08-22T07:18:47.927Z,90.00
2022-08-22T07:21:25.099Z,93.50
2022-08-22T07:23:53.466Z,97.75
2022-08-22T07:26:33.942Z,89.75
2022-08-22T07:29:10.860Z,87.75
2022-08-22T07:31:44.212Z,93.25
2022-08-22T07:34:21.902Z,95.75
2022-08-22T07:36:55.213Z,77.00
2022-08-22T07:39:26.940Z,90.75
2022-08-22T07:42:08.222Z,83.25
2022-08-22T07:44:42.265Z,81.75
2022-08-22T07:47:14.564Z,89.25
2022-08-22T07:49:50.596Z,87.25
2022-08-22T07:52:19.535Z,88.75
2022-08-22T07:54:49.819Z,94.50
2022-08-22T07:57:22.672Z,85.00
2022-08-22T07:59:53.905Z,95.00
2022-08-22T08:02:24.643Z,90.75
2022-08-22T08:04:54.463Z,95.75
2022-08-22T08:07:24.052Z,91.75
2022-08-22T08:09:54.802Z,83.25
2022-08-22T08:12:28.995Z,93.00
2022-08-22T08:14:57.319Z,83.00
2022-08-22T08:17:32.186Z,86.75
2022-08-22T08:20:04.169Z,83.75
2022-08-22T08:22:32.865Z,73.25
2022-08-22T08:25:01.682Z,83.25
2022-08-22T08:27:54.857Z,87.25
2022-08-22T08:30:25.356Z,79.00
2022-08-22T08:33:25.611Z,81.25
2022-08-22T08:36:02.894Z,78.00
2022-08-22T08:38:34.408Z,89.25
2022-08-22T08:41:22.098Z,94.75
2022-08-22T08:43:56.597Z,93.25
2022-08-22T08:46:50.232Z,85.75
2022-08-22T08:52:39.892Z,85.25
2022-08-22T08:55:22.907Z,84.00
2022-08-22T08:57:58.725Z,85.00
2022-08-22T09:00:49.000Z,84.00
2022-08-22T09:03:30.701Z,71.25
2022-08-22T09:06:11.271Z,77.50
2022-08-22T09:08:58.924Z,56.25
2022-08-22T09:11:51.368Z,60.50
2022-08-22T09:14:27.747Z,59.80
2022-08-22T09:17:06.896Z,61.60
2022-08-22T09:19:56.835Z,63.50
2022-08-22T09:22:58.051Z,59.00
2022-08-22T09:28:22.731Z,72.75
2022-08-22T09:31:22.336Z,62.25
2022-08-22T09:34:01.609Z,63.75
2022-08-22T09:36:37.165Z,56.00
2022-08-22T09:39:16.579Z,43.40
2022-08-22T09:40:15.556Z,73.75
2022-08-22T09:42:00.184Z,41.00
2022-08-22T09:44:39.680Z,41.00
2022-08-22T09:47:14.487Z,36.40
2022-08-22T09:49:48.480Z,40.60
2022-08-22T09:52:33.197Z,40.20
2022-08-22T09:55:08.114Z,35.40
2022-08-22T09:57:42.589Z,39.60
2022-08-22T10:00:16.406Z,39.40
2022-08-22T10:02:50.383Z,37.80
2022-08-22T10:05:41.043Z,34.20
2022-08-22T10:08:13.127Z,34.40
2022-08-22T10:10:51.090Z,33.60
2022-08-22T10:13:30.925Z,37.00
2022-08-22T10:16:08.329Z,37.40
2022-08-22T10:18:43.990Z,34.40
2022-08-22T10:21:25.310Z,34.20
2022-08-22T10:23:55.446Z,35.20
2022-08-22T10:26:35.244Z,38.20
2022-08-22T10:29:12.235Z,38.00
2022-08-22T10:31:58.435Z,35.20
2022-08-22T10:34:30.405Z,33.00
2022-08-22T10:37:03.499Z,32.40
2022-08-22T10:39:38.165Z,33.60
2022-08-22T10:42:23.194Z,37.40
2022-08-22T10:44:58.353Z,36.00
2022-08-22T10:47:31.750Z,34.20
2022-08-22T10:50:08.778Z,31.60
2022-08-22T10:52:44.879Z,32.20
2022-08-22T10:55:15.335Z,32.40
2022-08-22T10:57:55.750Z,28.80
2022-08-22T11:00:37.465Z,31.40
2022-08-22T11:03:21.832Z,26.60
2022-08-22T11:05:53.670Z,28.80
2022-08-22T11:08:34.989Z,27.60
2022-08-22T11:11:08.186Z,31.60
2022-08-22T11:13:42.321Z,32.20
2022-08-22T11:16:31.065Z,30.80
2022-08-22T11:19:14.944Z,33.40
2022-08-22T11:21:47.818Z,35.00
2022-08-22T11:24:55.875Z,32.40
2022-08-22T11:27:39.524Z,29.60
2022-08-22T11:30:11.252Z,33.00
2022-08-22T11:33:06.942Z,32.60
2022-08-22T11:35:44.385Z,33.00
2022-08-22T11:38:21.370Z,30.00
2022-08-22T11:40:58.985Z,25.00
2022-08-22T11:43:35.186Z,25.80
2022-08-22T11:46:19.779Z,31.40
2022-08-22T11:48:57.057Z,27.60
2022-08-22T11:51:34.478Z,22.25
2022-08-22T11:54:08.225Z,24.00
2022-08-22T11:56:40.123Z,23.00
2022-08-22T11:59:17.503Z,30.20
2022-08-22T12:01:49.084Z,24.20
2022-08-22T12:04:23.017Z,23.00
2022-08-22T12:07:00.228Z,22.00
2022-08-22T12:09:37.987Z,20.00
2022-08-22T12:12:17.093Z,21.75
2022-08-22T12:14:48.335Z,19.50
2022-08-22T12:17:33.544Z,16.25
2022-08-22T12:20:18.649Z,16.00
2022-08-22T12:23:04.878Z,18.25
2022-08-22T12:25:45.993Z,21.50
2022-08-22T12:28:20.553Z,19.25
2022-08-22T12:30:54.762Z,19.00
2022-08-22T12:33:33.173Z,11.00
2022-08-22T12:36:17.748Z,12.25
2022-08-22T12:39:13.765Z,13.25
2022-08-22T12:41:49.791Z,11.00
2022-08-22T12:44:30.242Z,10.50
2022-08-22T12:47:13.688Z,12.00
2022-08-22T12:49:53.019Z,7.00
2022-08-22T12:52:31.190Z,6.00
2022-08-22T12:55:15.418Z,5.25
2022-08-22T12:57:50.459Z,5.25
2022-08-22T13:00:27.792Z,5.25
2022-08-22T13:03:03.309Z,4.25
2022-08-22T13:05:34.292Z,5.50
2022-08-22T13:08:14.074Z,7.00
2022-08-22T13:10:47.380Z,6.00
2022-08-22T13:13:17.319Z,7.00
2022-08-22T13:15:58.960Z,6.00
2022-08-22T13:18:33.997Z,5.00
2022-08-22T13:21:05.560Z,5.25
2022-08-22T13:23:39.760Z,5.00
2022-08-22T13:26:12.452Z,7.50
2022-08-22T13:29:15.504Z,4.50
2022-08-22T13:31:52.441Z,5.25
2022-08-22T13:34:30.755Z,4.40
2022-08-22T13:37:02.982Z,5.00
2022-08-22T13:39:34.937Z,4.75
2022-08-22T13:42:14.145Z,4.60
2022-08-22T13:44:45.214Z,5.00
2022-08-22T13:47:16.043Z,5.25
2022-08-22T13:49:47.602Z,7.25
2022-08-22T13:52:29.219Z,6.75
2022-08-22T13:55:02.089Z,4.00
2022-08-22T13:57:34.821Z,4.00
2022-08-22T14:00:10.049Z,6.50
2022-08-22T14:02:43.240Z,1.50
2022-08-22T14:05:14.677Z,4.75
2022-08-22T14:07:50.066Z,4.50
2022-08-22T14:10:25.163Z,5.25
2022-08-22T14:13:17.641Z,7.00
2022-08-22T14:15:46.223Z,6.25
2022-08-22T14:18:18.745Z,4.00
2022-08-22T14:20:48.579Z,5.25
2022-08-22T14:23:23.966Z,5.00
2022-08-22T14:25:58.160Z,8.00
2022-08-22T14:28:28.767Z,11.50
2022-08-22T14:31:00.906Z,9.00
2022-08-22T14:33:35.227Z,6.00
2022-08-22T14:36:11.538Z,4.00
2022-08-22T14:38:46.380Z,5.50
2022-08-22T14:41:26.537Z,5.00
2022-08-22T14:43:58.106Z,5.00
2022-08-22T14:46:28.304Z,5.75
2022-08-22T14:49:16.219Z,5.50
2022-08-22T14:51:50.724Z,11.50
2022-08-22T14:54:21.344Z,4.50
2022-08-22T14:56:53.314Z,9.50
2022-08-22T14:59:31.357Z,8.25
2022-08-22T15:02:01.851Z,7.25
2022-08-22T15:04:35.017Z,8.75
2022-08-22T15:07:03.563Z,9.50
2022-08-22T15:09:33.687Z,6.50
2022-08-22T15:12:05.139Z,11.75
2022-08-22T15:14:44.055Z,10.50
2022-08-22T15:17:32.559Z,12.50
2022-08-22T15:20:10.391Z,13.50
2022-08-22T15:22:41.087Z,11.00
2022-08-22T15:25:17.072Z,10.75
2022-08-22T15:27:49.587Z,12.00
2022-08-22T15:30:20.867Z,11.25
2022-08-22T15:32:50.306Z,13.25
2022-08-22T15:35:28.168Z,10.25
2022-08-22T15:37:59.351Z,11.00
2022-08-22T15:40:32.393Z,10.50
2022-08-22T15:43:13.661Z,12.25
2022-08-22T15:45:43.971Z,10.50
2022-08-22T15:48:25.392Z,11.75
2022-08-22T15:50:58.181Z,9.00
2022-08-22T15:53:29.112Z,8.00
2022-08-22T15:56:21.581Z,7.75
2022-08-22T15:58:54.282Z,10.75
2022-08-22T16:01:25.551Z,12.00
2022-08-22T16:03:55.819Z,12.50
2022-08-22T16:06:38.720Z,10.75
2022-08-22T16:09:10.841Z,13.00
2022-08-22T16:11:40.694Z,13.00
2022-08-22T16:14:21.788Z,14.25
2022-08-22T16:17:01.574Z,1.50
2022-08-22T16:19:30.448Z,13.75
2022-08-22T16:22:12.229Z,12.75
2022-08-22T16:24:59.258Z,16.00
2022-08-22T16:27:28.311Z,15.50
2022-08-22T16:30:07.160Z,14.50
2022-08-22T16:32:35.913Z,15.00
2022-08-22T16:35:04.694Z,15.50
2022-08-22T16:37:45.893Z,15.00
2022-08-22T16:40:16.968Z,16.25
2022-08-22T16:42:46.739Z,15.25
2022-08-22T16:45:22.147Z,16.75
2022-08-22T16:47:58.109Z,15.00
2022-08-22T16:50:29.515Z,16.75
2022-08-22T16:52:59.713Z,16.75
2022-08-22T16:55:46.409Z,14.75
2022-08-22T16:58:35.686Z,16.00
2022-08-22T17:01:16.519Z,12.25
2022-08-22T17:03:49.032Z,16.75
2022-08-22T17:06:24.085Z,15.00
2022-08-22T17:08:58.628Z,17.00
2022-08-22T17:11:33.598Z,15.25
2022-08-22T17:14:09.748Z,16.75
2022-08-22T17:16:50.886Z,19.00
2022-08-22T17:19:29.911Z,18.00
2022-08-22T17:22:00.449Z,16.50
2022-08-22T17:24:34.623Z,14.25
2022-08-22T17:27:07.506Z,15.75
2022-08-22T17:29:49.596Z,16.50
2022-08-22T17:32:24.343Z,18.50
2022-08-22T17:34:58.219Z,17.00
2022-08-22T17:37:32.441Z,18.00
2022-08-22T17:40:10.753Z,17.00
2022-08-22T17:42:54.810Z,18.00
2022-08-22T17:45:28.473Z,17.25
2022-08-22T17:48:09.796Z,17.75
2022-08-22T17:50:42.609Z,16.75
2022-08-22T17:53:16.056Z,19.75
2022-08-22T17:55:56.577Z,21.00
2022-08-22T17:58:37.546Z,21.00
2022-08-22T18:01:14.893Z,21.00
2022-08-22T18:03:51.166Z,20.00
2022-08-22T18:06:21.080Z,23.25
2022-08-22T18:11:44.780Z,24.00
2022-08-22T18:14:20.578Z,25.25
2022-08-22T18:16:52.309Z,27.40
2022-08-22T18:19:34.209Z,27.00
2022-08-22T18:22:06.311Z,26.75
2022-08-22T18:24:39.728Z,30.40
2022-08-22T18:27:30.045Z,27.80
2022-08-22T18:30:27.782Z,29.00
2022-08-22T18:32:58.042Z,29.60
2022-08-22T18:35:33.242Z,30.00
2022-08-22T18:38:19.622Z,31.80
2022-08-22T18:40:51.465Z,33.40
2022-08-22T18:43:24.187Z,33.00
2022-08-22T18:46:02.782Z,32.60
2022-08-22T18:48:43.256Z,32.00
2022-08-22T18:51:25.939Z,32.20
2022-08-22T18:53:55.515Z,31.00
2022-08-22T18:56:44.596Z,33.00
2022-08-22T18:59:19.951Z,34.40
2022-08-22T19:01:58.212Z,35.60
2022-08-22T19:04:41.324Z,34.80
2022-08-22T19:07:22.111Z,34.20
2022-08-22T19:09:59.360Z,37.20
2022-08-22T19:12:43.270Z,34.00
2022-08-22T19:15:19.748Z,33.80
2022-08-22T19:17:59.899Z,38.00
2022-08-22T19:20:47.825Z,36.80
2022-08-22T19:23:36.296Z,37.60
2022-08-22T19:26:26.154Z,33.40
2022-08-22T19:28:56.439Z,40.20
2022-08-22T19:31:26.471Z,42.80
2022-08-22T19:34:10.056Z,43.40
2022-08-22T19:36:38.478Z,44.60
2022-08-22T19:39:09.136Z,42.00
2022-08-22T19:41:52.633Z,46.80
2022-08-22T19:44:39.952Z,43.60
2022-08-22T19:47:26.984Z,42.80
2022-08-22T19:50:00.608Z,45.00
2022-08-22T19:52:35.087Z,45.40
2022-08-22T19:55:09.243Z,45.80
2022-08-22T19:57:43.249Z,40.00
2022-08-22T20:00:13.429Z,43.00
2022-08-22T20:02:53.399Z,48.80
2022-08-22T20:05:27.878Z,44.80
2022-08-22T20:08:04.774Z,47.80
2022-08-22T20:10:40.869Z,52.00
2022-08-22T20:13:12.320Z,40.20
2022-08-22T20:15:55.521Z,48.40
2022-08-22T20:19:06.015Z,46.80
2022-08-22T20:21:40.451Z,48.40
2022-08-22T20:24:11.813Z,50.00
2022-08-22T20:26:57.562Z,49.80
2022-08-22T20:29:33.031Z,48.20
2022-08-22T20:32:01.772Z,50.80
2022-08-22T20:34:30.757Z,50.40
2022-08-22T20:37:23.636Z,50.20
2022-08-22T20:39:58.582Z,47.60
2022-08-22T20:42:27.643Z,52.20
2022-08-22T20:44:59.285Z,46.00
2022-08-22T20:47:34.107Z,50.80
2022-08-22T20:50:12.174Z,45.60
2022-08-22T20:52:52.021Z,47.80
2022-08-22T20:55:27.235Z,48.80
2022-08-22T20:58:01.320Z,45.40
2022-08-22T21:00:33.192Z,51.60
2022-08-22T21:03:03.231Z,48.80
2022-08-22T21:05:34.536Z,49.40
2022-08-22T21:08:04.986Z,45.80
2022-08-22T21:11:04.119Z,49.00
2022-08-22T21:13:34.550Z,46.80
2022-08-22T21:16:13.320Z,48.60
2022-08-22T21:18:43.021Z,49.80
2022-08-22T21:21:19.057Z,49.20
2022-08-22T21:23:48.436Z,51.60
2022-08-22T21:26:22.352Z,50.20
2022-08-22T21:28:56.754Z,41.80
2022-08-22T21:31:28.457Z,47.00
2022-08-22T21:33:57.223Z,44.20
2022-08-22T21:36:27.461Z,47.40
2022-08-22T21:38:57.418Z,41.00
2022-08-22T21:41:30.739Z,42.00
2022-08-22T21:44:13.660Z,45.60
2022-08-22T21:46:43.408Z,45.20
2022-08-22T21:49:21.362Z,44.40
2022-08-22T21:51:49.533Z,46.80
2022-08-22T21:54:21.970Z,45.80
2022-08-22T21:56:51.152Z,48.20
2022-08-22T21:59:25.805Z,43.60
2022-08-22T22:01:55.974Z,46.00
2022-08-22T22:04:24.109Z,44.00
2022-08-22T22:06:52.263Z,46.00
2022-08-22T22:09:20.525Z,45.00
2022-08-22T22:11:48.670Z,46.40
2022-08-22T22:14:16.860Z,44.40
2022-08-22T22:16:45.017Z,44.20
2022-08-22T22:19:15.030Z,43.00
2022-08-22T22:21:43.187Z,40.60
2022-08-22T22:24:11.271Z,39.20
2022-08-22T22:26:39.499Z,43.40
2022-08-22T22:29:09.255Z,47.20
2022-08-22T22:31:38.597Z,41.80
2022-08-22T22:34:06.822Z,43.00
2022-08-22T22:36:36.893Z,41.00
2022-08-22T22:39:05.824Z,37.00
2022-08-22T22:41:34.195Z,38.60
2022-08-22T22:44:02.367Z,37.80
2022-08-22T22:46:30.448Z,39.80
2022-08-22T22:48:58.849Z,41.20
2022-08-22T22:51:26.938Z,38.80
2022-08-22T22:53:58.249Z,41.40
2022-08-22T22:56:26.428Z,39.80
2022-08-22T22:58:58.969Z,41.60
2022-08-22T23:01:29.190Z,38.00
2022-08-22T23:03:58.080Z,37.20
2022-08-22T23:06:27.205Z,39.20
2022-08-22T23:08:55.312Z,39.40
2022-08-22T23:11:25.803Z,39.00
2022-08-22T23:13:54.440Z,33.60
2022-08-22T23:16:24.515Z,38.00
2022-08-22T23:18:53.100Z,37.00
2022-08-22T23:21:22.063Z,37.00
2022-08-22T23:23:51.213Z,37.20
2022-08-22T23:26:19.258Z,35.20
2022-08-22T23:28:48.803Z,37.00
2022-08-22T23:31:18.303Z,36.20
2022-08-22T23:33:47.064Z,38.60
2022-08-22T23:36:16.703Z,39.20
2022-08-22T23:38:45.413Z,37.00
2022-08-22T23:41:14.139Z,39.20
2022-08-22T23:43:43.262Z,39.20
2022-08-22T23:46:13.235Z,42.00
2022-08-22T23:48:41.326Z,38.40
2022-08-22T23:51:10.732Z,38.00
2022-08-22T23:53:39.067Z,39.60
2022-08-22T23:56:19.416Z,42.40
2022-08-22T23:58:49.125Z,38.60
